sensor_id;sensor_type;location;lat;lon;timestamp;pressure;altitude;pressure_sealevel;temperature;humidity
13952;BME280;39535;52.192;9.886;2024-01-15T00:00:45;98523.41;;;1.78;100.00
13952;BME280;39535;52.192;9.886;2024-01-15T00:03:11;98509.78;;;1.73;100.00
13952;BME280;39535;52.192;9.886;2024-01-15T00:05:38;98497.13;;;1.59;100.00
13952;BME280;39535;52.192;9.886;2024-01-15T00:08:04;98484.28;;;1.57;100.00
13952;BME280;39535;52.192;9.886;2024-01-15T00:10:31;98474.03;;;1.54;100.00
13952;BME280;39535;52.192;9.886;2024-01-15T00:12:57;98453.31;;;1.67;100.00
13952;BME280;39535;52.192;9.886;2024-01-15T00:15:23;98445.91;;;1.47;100.00
13952;BME280;39535;52.192;9.886;2024-01-15T00:17:51;98432.16;;;1.48;100.00
13952;BME280;39535;52.192;9.886;2024-01-15T00:20:18;98423.69;;;1.41;100.00
13952;BME280;39535;52.192;9.886;2024-01-15T00:22:44;98405.19;;;1.73;100.00
13952;BME280;39535;52.192;9.886;2024-01-15T00:25:10;98425.13;;;1.59;100.00
13952;BME280;39535;52.192;9.886;2024-01-15T00:27:37;98442.44;;;1.48;100.00
13952;BME280;39535;52.192;9.886;2024-01-15T00:30:04;98429.34;;;1.65;100.00
13952;BME280;39535;52.192;9.886;2024-01-15T00:32:30;98431.09;;;1.63;100.00
13952;BME280;39535;52.192;9.886;2024-01-15T00:34:58;98428.63;;;1.55;100.00
13952;BME280;39535;52.192;9.886;2024-01-15T00:37:24;98436.03;;;1.75;100.00
13952;BME280;39535;52.192;9.886;2024-01-15T00:39:51;98453.75;;;1.92;100.00
13952;BME280;39535;52.192;9.886;2024-01-15T00:42:17;98464.38;;;1.70;100.00
13952;BME280;39535;52.192;9.886;2024-01-15T00:44:44;98466.16;;;1.67;100.00
13952;BME280;39535;52.192;9.886;2024-01-15T00:47:10;98478.94;;;1.71;100.00
13952;BME280;39535;52.192;9.886;2024-01-15T00:49:38;98472.91;;;1.74;100.00
13952;BME280;39535;52.192;9.886;2024-01-15T00:52:08;98478.00;;;1.78;100.00
13952;BME280;39535;52.192;9.886;2024-01-15T00:54:34;98467.78;;;1.72;100.00
13952;BME280;39535;52.192;9.886;2024-01-15T00:57:01;98467.31;;;1.46;100.00
13952;BME280;39535;52.192;9.886;2024-01-15T00:59:27;98423.06;;;1.24;100.00
13952;BME280;39535;52.192;9.886;2024-01-15T01:01:53;98385.34;;;1.26;100.00
13952;BME280;39535;52.192;9.886;2024-01-15T01:04:20;98383.41;;;1.40;100.00
13952;BME280;39535;52.192;9.886;2024-01-15T01:06:46;98381.69;;;1.41;100.00
13952;BME280;39535;52.192;9.886;2024-01-15T01:09:14;98379.69;;;1.59;100.00
13952;BME280;39535;52.192;9.886;2024-01-15T01:11:41;98400.59;;;1.36;100.00
13952;BME280;39535;52.192;9.886;2024-01-15T01:14:07;98415.19;;;1.36;100.00
13952;BME280;39535;52.192;9.886;2024-01-15T01:16:33;98430.63;;;1.34;100.00
13952;BME280;39535;52.192;9.886;2024-01-15T01:19:04;98435.88;;;1.27;100.00
13952;BME280;39535;52.192;9.886;2024-01-15T01:21:30;98458.75;;;1.47;100.00
13952;BME280;39535;52.192;9.886;2024-01-15T01:23:56;98489.41;;;1.61;99.69
13952;BME280;39535;52.192;9.886;2024-01-15T01:26:24;98528.53;;;1.81;98.36
13952;BME280;39535;52.192;9.886;2024-01-15T01:28:51;98561.25;;;1.71;96.99
13952;BME280;39535;52.192;9.886;2024-01-15T01:31:17;98594.97;;;1.48;96.56
13952;BME280;39535;52.192;9.886;2024-01-15T01:33:44;98612.69;;;1.70;95.79
13952;BME280;39535;52.192;9.886;2024-01-15T01:36:10;98633.16;;;1.79;95.29
13952;BME280;39535;52.192;9.886;2024-01-15T01:38:36;98656.50;;;1.64;94.80
13952;BME280;39535;52.192;9.886;2024-01-15T01:41:03;98647.03;;;1.66;94.65
13952;BME280;39535;52.192;9.886;2024-01-15T01:43:31;98666.84;;;1.59;94.07
13952;BME280;39535;52.192;9.886;2024-01-15T01:45:57;98672.75;;;1.66;93.69
13952;BME280;39535;52.192;9.886;2024-01-15T01:48:25;98677.75;;;1.79;93.29
13952;BME280;39535;52.192;9.886;2024-01-15T01:50:52;98694.16;;;1.71;93.40
13952;BME280;39535;52.192;9.886;2024-01-15T01:53:19;98687.41;;;1.59;93.44
13952;BME280;39535;52.192;9.886;2024-01-15T01:55:46;98681.41;;;1.58;94.26
13952;BME280;39535;52.192;9.886;2024-01-15T01:58:14;98673.66;;;1.63;93.42
13952;BME280;39535;52.192;9.886;2024-01-15T02:00:42;98687.13;;;1.82;93.28
13952;BME280;39535;52.192;9.886;2024-01-15T02:03:09;98691.44;;;1.82;92.49
13952;BME280;39535;52.192;9.886;2024-01-15T02:05:36;98712.84;;;1.82;91.33
13952;BME280;39535;52.192;9.886;2024-01-15T02:08:03;98724.78;;;1.89;91.52
13952;BME280;39535;52.192;9.886;2024-01-15T02:10:29;98742.03;;;1.83;90.53
13952;BME280;39535;52.192;9.886;2024-01-15T02:12:55;98751.56;;;1.70;91.06
13952;BME280;39535;52.192;9.886;2024-01-15T02:15:21;98729.00;;;1.96;90.61
13952;BME280;39535;52.192;9.886;2024-01-15T02:17:59;98753.03;;;1.94;90.55
13952;BME280;39535;52.192;9.886;2024-01-15T02:20:25;98760.06;;;1.78;90.62
13952;BME280;39535;52.192;9.886;2024-01-15T02:22:52;98749.44;;;2.10;90.35
13952;BME280;39535;52.192;9.886;2024-01-15T02:25:20;98764.97;;;2.03;90.36
13952;BME280;39535;52.192;9.886;2024-01-15T02:27:47;98763.34;;;1.92;89.54
13952;BME280;39535;52.192;9.886;2024-01-15T02:30:15;98760.47;;;2.18;89.81
13952;BME280;39535;52.192;9.886;2024-01-15T02:32:41;98774.34;;;2.05;90.14
13952;BME280;39535;52.192;9.886;2024-01-15T02:35:08;98765.00;;;1.98;90.08
13952;BME280;39535;52.192;9.886;2024-01-15T02:37:34;98769.03;;;2.22;90.07
13952;BME280;39535;52.192;9.886;2024-01-15T02:40:01;98767.53;;;2.03;89.67
13952;BME280;39535;52.192;9.886;2024-01-15T02:42:29;98771.00;;;1.98;89.70
13952;BME280;39535;52.192;9.886;2024-01-15T02:44:56;98778.81;;;1.88;90.33
13952;BME280;39535;52.192;9.886;2024-01-15T02:47:24;98751.22;;;2.02;90.16
13952;BME280;39535;52.192;9.886;2024-01-15T02:49:53;98768.47;;;1.94;90.05
13952;BME280;39535;52.192;9.886;2024-01-15T02:52:19;98754.44;;;2.19;88.81
13952;BME280;39535;52.192;9.886;2024-01-15T02:54:46;98763.97;;;2.13;88.94
13952;BME280;39535;52.192;9.886;2024-01-15T02:57:12;98778.56;;;2.12;88.36
13952;BME280;39535;52.192;9.886;2024-01-15T02:59:40;98800.09;;;2.04;87.93
13952;BME280;39535;52.192;9.886;2024-01-15T03:02:06;98800.78;;;2.18;88.70
13952;BME280;39535;52.192;9.886;2024-01-15T03:04:33;98801.94;;;1.92;88.22
13952;BME280;39535;52.192;9.886;2024-01-15T03:06:59;98833.56;;;2.02;88.06
13952;BME280;39535;52.192;9.886;2024-01-15T03:09:25;98803.41;;;2.16;88.25
13952;BME280;39535;52.192;9.886;2024-01-15T03:11:52;98792.28;;;2.11;88.36
13952;BME280;39535;52.192;9.886;2024-01-15T03:14:18;98804.38;;;2.06;88.58
13952;BME280;39535;52.192;9.886;2024-01-15T03:16:46;98795.69;;;2.13;88.47
13952;BME280;39535;52.192;9.886;2024-01-15T03:19:13;98798.47;;;1.95;87.91
13952;BME280;39535;52.192;9.886;2024-01-15T03:21:39;98791.63;;;1.95;88.25
13952;BME280;39535;52.192;9.886;2024-01-15T03:24:05;98782.72;;;2.24;88.72
13952;BME280;39535;52.192;9.886;2024-01-15T03:26:32;98807.66;;;2.17;87.96
13952;BME280;39535;52.192;9.886;2024-01-15T03:29:01;98824.06;;;2.09;88.18
13952;BME280;39535;52.192;9.886;2024-01-15T03:31:28;98800.94;;;2.04;88.21
13952;BME280;39535;52.192;9.886;2024-01-15T03:33:55;98788.88;;;2.11;88.61
13952;BME280;39535;52.192;9.886;2024-01-15T03:36:22;98787.09;;;2.16;88.86
13952;BME280;39535;52.192;9.886;2024-01-15T03:38:48;98789.72;;;2.11;89.17
13952;BME280;39535;52.192;9.886;2024-01-15T03:41:14;98759.59;;;2.18;89.36
13952;BME280;39535;52.192;9.886;2024-01-15T03:43:41;98741.56;;;2.19;90.48
13952;BME280;39535;52.192;9.886;2024-01-15T03:46:07;98725.72;;;1.82;91.60
13952;BME280;39535;52.192;9.886;2024-01-15T03:48:34;98698.22;;;1.90;92.04
13952;BME280;39535;52.192;9.886;2024-01-15T03:51:02;98674.06;;;1.99;91.96
13952;BME280;39535;52.192;9.886;2024-01-15T03:53:28;98691.03;;;2.14;91.05
13952;BME280;39535;52.192;9.886;2024-01-15T03:55:54;98701.41;;;2.08;90.61
13952;BME280;39535;52.192;9.886;2024-01-15T03:58:22;98711.75;;;2.03;89.91
13952;BME280;39535;52.192;9.886;2024-01-15T04:00:48;98700.34;;;2.23;90.67
13952;BME280;39535;52.192;9.886;2024-01-15T04:03:14;98712.38;;;2.22;90.29
13952;BME280;39535;52.192;9.886;2024-01-15T04:05:41;98715.00;;;2.19;91.30
13952;BME280;39535;52.192;9.886;2024-01-15T04:08:09;98732.41;;;1.98;91.80
13952;BME280;39535;52.192;9.886;2024-01-15T04:10:35;98683.44;;;2.06;92.24
13952;BME280;39535;52.192;9.886;2024-01-15T04:13:01;98706.63;;;2.03;91.60
13952;BME280;39535;52.192;9.886;2024-01-15T04:15:28;98708.16;;;2.16;90.84
13952;BME280;39535;52.192;9.886;2024-01-15T04:17:55;98710.81;;;2.10;90.46
13952;BME280;39535;52.192;9.886;2024-01-15T04:20:21;98713.34;;;2.12;90.54
13952;BME280;39535;52.192;9.886;2024-01-15T04:22:47;98715.84;;;2.19;90.68
13952;BME280;39535;52.192;9.886;2024-01-15T04:25:15;98730.69;;;1.96;90.41
13952;BME280;39535;52.192;9.886;2024-01-15T04:27:41;98737.41;;;2.09;90.04
13952;BME280;39535;52.192;9.886;2024-01-15T04:30:08;98721.81;;;2.22;91.01
13952;BME280;39535;52.192;9.886;2024-01-15T04:32:35;98719.63;;;1.92;90.95
13952;BME280;39535;52.192;9.886;2024-01-15T04:35:02;98722.91;;;2.04;91.61
13952;BME280;39535;52.192;9.886;2024-01-15T04:37:28;98710.16;;;1.94;91.73
13952;BME280;39535;52.192;9.886;2024-01-15T04:39:54;98700.78;;;1.89;91.79
13952;BME280;39535;52.192;9.886;2024-01-15T04:42:24;98668.25;;;1.85;92.57
13952;BME280;39535;52.192;9.886;2024-01-15T04:44:50;98668.69;;;2.16;91.60
13952;BME280;39535;52.192;9.886;2024-01-15T04:47:16;98686.00;;;2.05;91.22
13952;BME280;39535;52.192;9.886;2024-01-15T04:49:43;98655.91;;;2.10;91.65
13952;BME280;39535;52.192;9.886;2024-01-15T04:52:09;98660.09;;;2.20;91.42
13952;BME280;39535;52.192;9.886;2024-01-15T04:54:36;98676.63;;;2.01;92.07
13952;BME280;39535;52.192;9.886;2024-01-15T04:57:03;98668.09;;;1.95;91.85
13952;BME280;39535;52.192;9.886;2024-01-15T04:59:30;98666.91;;;2.21;90.61
13952;BME280;39535;52.192;9.886;2024-01-15T05:02:00;98690.38;;;1.98;91.31
13952;BME280;39535;52.192;9.886;2024-01-15T05:04:26;98677.41;;;2.06;91.44
13952;BME280;39535;52.192;9.886;2024-01-15T05:06:53;98686.78;;;2.11;91.45
13952;BME280;39535;52.192;9.886;2024-01-15T05:09:19;98679.94;;;2.09;91.33
13952;BME280;39535;52.192;9.886;2024-01-15T05:11:45;98661.75;;;2.23;91.47
13952;BME280;39535;52.192;9.886;2024-01-15T05:14:12;98636.50;;;1.87;93.20
13952;BME280;39535;52.192;9.886;2024-01-15T05:16:44;98626.28;;;1.79;94.59
13952;BME280;39535;52.192;9.886;2024-01-15T05:19:12;98583.81;;;2.14;93.89
13952;BME280;39535;52.192;9.886;2024-01-15T05:21:38;98589.94;;;2.04;94.07
13952;BME280;39535;52.192;9.886;2024-01-15T05:24:05;98602.66;;;2.13;93.67
13952;BME280;39535;52.192;9.886;2024-01-15T05:26:31;98594.41;;;1.91;94.61
13952;BME280;39535;52.192;9.886;2024-01-15T05:28:58;98588.34;;;1.95;95.12
13952;BME280;39535;52.192;9.886;2024-01-15T05:31:24;98578.22;;;1.83;95.88
13952;BME280;39535;52.192;9.886;2024-01-15T05:33:52;98547.53;;;1.71;97.65
13952;BME280;39535;52.192;9.886;2024-01-15T05:36:18;98514.06;;;1.72;99.13
13952;BME280;39535;52.192;9.886;2024-01-15T05:38:45;98499.47;;;1.74;99.94
13952;BME280;39535;52.192;9.886;2024-01-15T05:41:11;98491.91;;;1.65;99.62
13952;BME280;39535;52.192;9.886;2024-01-15T05:43:38;98463.41;;;1.79;99.62
13952;BME280;39535;52.192;9.886;2024-01-15T05:46:04;98471.16;;;1.74;98.99
13952;BME280;39535;52.192;9.886;2024-01-15T05:48:30;98465.97;;;1.81;99.68
13952;BME280;39535;52.192;9.886;2024-01-15T05:50:58;98469.34;;;1.83;99.32
13952;BME280;39535;52.192;9.886;2024-01-15T05:53:27;98471.94;;;1.81;98.80
13952;BME280;39535;52.192;9.886;2024-01-15T05:55:54;98469.19;;;1.92;98.01
13952;BME280;39535;52.192;9.886;2024-01-15T05:58:22;98473.63;;;1.82;97.89
13952;BME280;39535;52.192;9.886;2024-01-15T06:00:48;98481.44;;;1.74;97.69
13952;BME280;39535;52.192;9.886;2024-01-15T06:03:15;98482.22;;;1.81;97.17
13952;BME280;39535;52.192;9.886;2024-01-15T06:05:41;98503.44;;;1.95;96.38
13952;BME280;39535;52.192;9.886;2024-01-15T06:08:09;98503.44;;;1.95;96.04
13952;BME280;39535;52.192;9.886;2024-01-15T06:10:35;98505.06;;;2.03;95.61
13952;BME280;39535;52.192;9.886;2024-01-15T06:13:02;98519.00;;;1.88;96.25
13952;BME280;39535;52.192;9.886;2024-01-15T06:15:28;98521.47;;;1.94;95.36
13952;BME280;39535;52.192;9.886;2024-01-15T06:17:54;98514.66;;;1.91;96.90
13952;BME280;39535;52.192;9.886;2024-01-15T06:20:21;98504.50;;;1.82;98.58
13952;BME280;39535;52.192;9.886;2024-01-15T06:22:47;98472.97;;;1.69;99.58
13952;BME280;39535;52.192;9.886;2024-01-15T06:25:15;98446.22;;;1.83;100.00
13952;BME280;39535;52.192;9.886;2024-01-15T06:27:41;98432.53;;;1.81;100.00
13952;BME280;39535;52.192;9.886;2024-01-15T06:30:08;98416.38;;;1.71;100.00
13952;BME280;39535;52.192;9.886;2024-01-15T06:32:35;98411.16;;;1.74;100.00
13952;BME280;39535;52.192;9.886;2024-01-15T06:35:01;98401.09;;;1.60;100.00
13952;BME280;39535;52.192;9.886;2024-01-15T06:37:27;98384.81;;;1.63;100.00
13952;BME280;39535;52.192;9.886;2024-01-15T06:39:54;98394.91;;;1.73;100.00
13952;BME280;39535;52.192;9.886;2024-01-15T06:42:22;98402.59;;;1.75;100.00
13952;BME280;39535;52.192;9.886;2024-01-15T06:44:48;98405.78;;;1.89;100.00
13952;BME280;39535;52.192;9.886;2024-01-15T06:47:15;98420.28;;;1.93;100.00
13952;BME280;39535;52.192;9.886;2024-01-15T06:49:42;98445.91;;;1.99;99.65
13952;BME280;39535;52.192;9.886;2024-01-15T06:52:09;98445.28;;;1.87;98.94
13952;BME280;39535;52.192;9.886;2024-01-15T06:54:36;98478.66;;;1.90;98.54
13952;BME280;39535;52.192;9.886;2024-01-15T06:57:03;98494.97;;;1.89;97.72
13952;BME280;39535;52.192;9.886;2024-01-15T06:59:30;98497.44;;;1.95;97.63
13952;BME280;39535;52.192;9.886;2024-01-15T07:01:57;98516.41;;;1.89;97.05
13952;BME280;39535;52.192;9.886;2024-01-15T07:04:24;98517.06;;;2.02;96.74
13952;BME280;39535;52.192;9.886;2024-01-15T07:06:50;98528.72;;;2.26;95.68
13952;BME280;39535;52.192;9.886;2024-01-15T07:09:17;98552.19;;;2.06;94.96
13952;BME280;39535;52.192;9.886;2024-01-15T07:11:44;98553.22;;;1.94;95.84
13952;BME280;39535;52.192;9.886;2024-01-15T07:14:11;98549.53;;;2.11;95.42
13952;BME280;39535;52.192;9.886;2024-01-15T07:16:39;98572.78;;;2.05;95.01
13952;BME280;39535;52.192;9.886;2024-01-15T07:19:05;98567.66;;;2.02;95.92
13952;BME280;39535;52.192;9.886;2024-01-15T07:21:31;98559.91;;;2.05;96.05
13952;BME280;39535;52.192;9.886;2024-01-15T07:23:58;98561.06;;;1.84;96.17
13952;BME280;39535;52.192;9.886;2024-01-15T07:26:24;98547.34;;;1.85;97.31
13952;BME280;39535;52.192;9.886;2024-01-15T07:28:51;98544.72;;;1.88;97.45
13952;BME280;39535;52.192;9.886;2024-01-15T07:31:17;98520.25;;;1.61;99.56
13952;BME280;39535;52.192;9.886;2024-01-15T07:33:47;98496.69;;;1.88;99.72
13952;BME280;39535;52.192;9.886;2024-01-15T07:36:14;98499.25;;;1.88;99.35
13952;BME280;39535;52.192;9.886;2024-01-15T07:38:41;98496.88;;;1.74;99.75
13952;BME280;39535;52.192;9.886;2024-01-15T07:41:08;98483.97;;;1.79;99.80
13952;BME280;39535;52.192;9.886;2024-01-15T07:43:34;98481.50;;;1.73;100.00
13952;BME280;39535;52.192;9.886;2024-01-15T07:46:02;98465.50;;;1.52;100.00
13952;BME280;39535;52.192;9.886;2024-01-15T07:48:29;98444.50;;;1.80;100.00
13952;BME280;39535;52.192;9.886;2024-01-15T07:50:56;98437.19;;;1.54;100.00
13952;BME280;39535;52.192;9.886;2024-01-15T07:53:24;98419.91;;;1.64;100.00
13952;BME280;39535;52.192;9.886;2024-01-15T07:55:50;98419.56;;;1.87;100.00
13952;BME280;39535;52.192;9.886;2024-01-15T07:58:16;98446.56;;;1.56;100.00
13952;BME280;39535;52.192;9.886;2024-01-15T08:00:43;98433.66;;;1.63;100.00
13952;BME280;39535;52.192;9.886;2024-01-15T08:03:10;98420.22;;;1.44;100.00
13952;BME280;39535;52.192;9.886;2024-01-15T08:05:36;98397.50;;;1.72;100.00
13952;BME280;39535;52.192;9.886;2024-01-15T08:08:05;98404.34;;;1.73;100.00
13952;BME280;39535;52.192;9.886;2024-01-15T08:10:31;98421.78;;;1.54;100.00
13952;BME280;39535;52.192;9.886;2024-01-15T08:12:58;98417.94;;;1.79;100.00
13952;BME280;39535;52.192;9.886;2024-01-15T08:15:24;98437.69;;;1.77;100.00
13952;BME280;39535;52.192;9.886;2024-01-15T08:17:50;98456.66;;;1.70;100.00
13952;BME280;39535;52.192;9.886;2024-01-15T08:20:17;98463.31;;;1.85;99.76
13952;BME280;39535;52.192;9.886;2024-01-15T08:22:43;98486.38;;;1.88;99.67
13952;BME280;39535;52.192;9.886;2024-01-15T08:25:10;98506.59;;;2.13;97.75
13952;BME280;39535;52.192;9.886;2024-01-15T08:27:38;98497.97;;;1.59;99.95
13952;BME280;39535;52.192;9.886;2024-01-15T08:30:05;98474.59;;;1.76;100.00
13952;BME280;39535;52.192;9.886;2024-01-15T08:32:32;98465.78;;;1.91;100.00
13952;BME280;39535;52.192;9.886;2024-01-15T08:34:58;98473.47;;;1.93;100.00
13952;BME280;39535;52.192;9.886;2024-01-15T08:37:24;98462.47;;;1.83;99.96
13952;BME280;39535;52.192;9.886;2024-01-15T08:39:51;98497.50;;;1.92;98.32
13952;BME280;39535;52.192;9.886;2024-01-15T08:42:18;98530.91;;;1.93;96.45
13952;BME280;39535;52.192;9.886;2024-01-15T08:44:45;98548.28;;;1.79;96.03
13952;BME280;39535;52.192;9.886;2024-01-15T08:47:12;98560.22;;;1.83;95.42
13952;BME280;39535;52.192;9.886;2024-01-15T08:49:38;98579.06;;;1.85;95.86
13952;BME280;39535;52.192;9.886;2024-01-15T08:52:05;98577.03;;;2.06;96.05
13952;BME280;39535;52.192;9.886;2024-01-15T08:54:32;98581.56;;;1.90;95.83
13952;BME280;39535;52.192;9.886;2024-01-15T08:56:58;98587.06;;;1.64;96.30
13952;BME280;39535;52.192;9.886;2024-01-15T08:59:28;98562.78;;;1.85;97.74
13952;BME280;39535;52.192;9.886;2024-01-15T09:01:54;98557.84;;;1.71;98.22
13952;BME280;39535;52.192;9.886;2024-01-15T09:04:22;98539.72;;;1.78;98.28
13952;BME280;39535;52.192;9.886;2024-01-15T09:06:48;98525.56;;;2.06;97.44
13952;BME280;39535;52.192;9.886;2024-01-15T09:09:16;98566.09;;;1.93;95.27
13952;BME280;39535;52.192;9.886;2024-01-15T09:11:42;98598.81;;;1.85;94.12
13952;BME280;39535;52.192;9.886;2024-01-15T09:14:09;98633.63;;;2.09;93.21
13952;BME280;39535;52.192;9.886;2024-01-15T09:16:36;98658.44;;;2.14;91.89
13952;BME280;39535;52.192;9.886;2024-01-15T09:19:03;98679.22;;;1.97;91.49
13952;BME280;39535;52.192;9.886;2024-01-15T09:21:29;98687.38;;;2.30;91.81
13952;BME280;39535;52.192;9.886;2024-01-15T09:23:55;98704.66;;;2.22;90.71
13952;BME280;39535;52.192;9.886;2024-01-15T09:26:22;98709.25;;;1.97;91.66
13952;BME280;39535;52.192;9.886;2024-01-15T09:28:49;98741.03;;;1.93;91.17
13952;BME280;39535;52.192;9.886;2024-01-15T09:31:15;98719.44;;;2.06;91.36
13952;BME280;39535;52.192;9.886;2024-01-15T09:33:43;98708.25;;;2.09;92.05
13952;BME280;39535;52.192;9.886;2024-01-15T09:36:10;98723.81;;;1.99;91.12
13952;BME280;39535;52.192;9.886;2024-01-15T09:38:36;98715.00;;;2.17;91.54
13952;BME280;39535;52.192;9.886;2024-01-15T09:41:03;98714.81;;;2.33;91.62
13952;BME280;39535;52.192;9.886;2024-01-15T09:43:29;98745.72;;;2.30;90.65
13952;BME280;39535;52.192;9.886;2024-01-15T09:45:55;98762.16;;;2.21;90.25
13952;BME280;39535;52.192;9.886;2024-01-15T09:48:23;98761.06;;;2.39;90.55
13952;BME280;39535;52.192;9.886;2024-01-15T09:50:52;98773.25;;;2.26;91.29
13952;BME280;39535;52.192;9.886;2024-01-15T09:53:19;98766.28;;;2.33;89.97
13952;BME280;39535;52.192;9.886;2024-01-15T09:55:46;98778.22;;;2.40;90.12
13952;BME280;39535;52.192;9.886;2024-01-15T09:58:13;98785.19;;;2.32;89.48
13952;BME280;39535;52.192;9.886;2024-01-15T10:00:39;98788.44;;;2.46;89.72
13952;BME280;39535;52.192;9.886;2024-01-15T10:03:09;98811.91;;;2.22;89.13
13952;BME280;39535;52.192;9.886;2024-01-15T10:05:36;98790.28;;;2.38;90.02
13952;BME280;39535;52.192;9.886;2024-01-15T10:08:05;98789.28;;;2.48;89.25
13952;BME280;39535;52.192;9.886;2024-01-15T10:10:31;98808.72;;;2.71;88.92
13952;BME280;39535;52.192;9.886;2024-01-15T10:12:58;98831.72;;;2.85;88.33
13952;BME280;39535;52.192;9.886;2024-01-15T10:15:25;98848.59;;;2.42;89.39
13952;BME280;39535;52.192;9.886;2024-01-15T10:17:52;98799.53;;;1.78;94.93
13952;BME280;39535;52.192;9.886;2024-01-15T10:20:18;98671.38;;;1.34;100.00
13952;BME280;39535;52.192;9.886;2024-01-15T10:22:47;98538.56;;;1.37;100.00
13952;BME280;39535;52.192;9.886;2024-01-15T10:25:15;98464.84;;;1.39;100.00
13952;BME280;39535;52.192;9.886;2024-01-15T10:27:59;98435.41;;;1.61;100.00
13952;BME280;39535;52.192;9.886;2024-01-15T10:30:25;98435.44;;;1.57;100.00
13952;BME280;39535;52.192;9.886;2024-01-15T10:32:57;98436.09;;;1.70;100.00
13952;BME280;39535;52.192;9.886;2024-01-15T10:35:26;98446.13;;;1.86;100.00
13952;BME280;39535;52.192;9.886;2024-01-15T10:37:52;98497.44;;;1.96;99.38
13952;BME280;39535;52.192;9.886;2024-01-15T10:40:21;98525.16;;;1.77;98.37
13952;BME280;39535;52.192;9.886;2024-01-15T10:42:47;98534.34;;;1.94;97.19
13952;BME280;39535;52.192;9.886;2024-01-15T10:45:14;98585.75;;;1.97;94.54
13952;BME280;39535;52.192;9.886;2024-01-15T10:47:40;98610.59;;;1.99;93.97
13952;BME280;39535;52.192;9.886;2024-01-15T10:50:08;98625.94;;;2.04;94.32
13952;BME280;39535;52.192;9.886;2024-01-15T10:52:35;98650.06;;;1.98;94.33
13952;BME280;39535;52.192;9.886;2024-01-15T10:55:02;98671.53;;;1.96;93.22
13952;BME280;39535;52.192;9.886;2024-01-15T10:57:30;98684.38;;;1.97;93.10
13952;BME280;39535;52.192;9.886;2024-01-15T10:59:57;98687.94;;;1.89;92.82
13952;BME280;39535;52.192;9.886;2024-01-15T11:02:24;98690.25;;;2.07;92.87
13952;BME280;39535;52.192;9.886;2024-01-15T11:04:52;98687.03;;;1.91;93.77
13952;BME280;39535;52.192;9.886;2024-01-15T11:07:24;98690.44;;;1.92;93.11
13952;BME280;39535;52.192;9.886;2024-01-15T11:09:51;98696.28;;;2.06;93.27
13952;BME280;39535;52.192;9.886;2024-01-15T11:12:17;98705.44;;;2.27;91.73
13952;BME280;39535;52.192;9.886;2024-01-15T11:14:47;98728.03;;;2.07;91.50
13952;BME280;39535;52.192;9.886;2024-01-15T11:17:15;98750.94;;;2.25;90.19
13952;BME280;39535;52.192;9.886;2024-01-15T11:19:46;98774.28;;;2.10;89.54
13952;BME280;39535;52.192;9.886;2024-01-15T11:25:13;98795.78;;;2.06;89.23
13952;BME280;39535;52.192;9.886;2024-01-15T11:27:40;98778.69;;;2.02;90.72
13952;BME280;39535;52.192;9.886;2024-01-15T11:30:10;98765.88;;;1.98;90.10
13952;BME280;39535;52.192;9.886;2024-01-15T11:32:37;98778.69;;;2.02;90.25
13952;BME280;39535;52.192;9.886;2024-01-15T11:35:18;98769.94;;;2.16;90.39
13952;BME280;39535;52.192;9.886;2024-01-15T11:37:57;98788.06;;;2.04;89.13
13952;BME280;39535;52.192;9.886;2024-01-15T11:40:37;98789.63;;;2.19;88.80
13952;BME280;39535;52.192;9.886;2024-01-15T11:43:05;98811.97;;;2.15;87.82
13952;BME280;39535;52.192;9.886;2024-01-15T11:45:31;98800.50;;;2.43;87.67
13952;BME280;39535;52.192;9.886;2024-01-15T11:48:09;98831.66;;;2.21;87.12
13952;BME280;39535;52.192;9.886;2024-01-15T11:50:39;98839.38;;;2.21;87.22
13952;BME280;39535;52.192;9.886;2024-01-15T11:53:13;98837.53;;;2.34;87.49
13952;BME280;39535;52.192;9.886;2024-01-15T11:55:43;98841.88;;;2.29;86.90
13952;BME280;39535;52.192;9.886;2024-01-15T11:58:11;98848.00;;;2.15;86.67
13952;BME280;39535;52.192;9.886;2024-01-15T12:00:39;98839.09;;;2.46;87.40
13952;BME280;39535;52.192;9.886;2024-01-15T12:03:06;98839.63;;;2.71;86.75
13952;BME280;39535;52.192;9.886;2024-01-15T12:05:33;98863.13;;;2.46;85.77
13952;BME280;39535;52.192;9.886;2024-01-15T12:08:00;98865.72;;;2.43;86.32
13952;BME280;39535;52.192;9.886;2024-01-15T12:10:27;98854.59;;;2.39;86.61
13952;BME280;39535;52.192;9.886;2024-01-15T12:12:57;98872.84;;;2.21;86.36
13952;BME280;39535;52.192;9.886;2024-01-15T12:15:25;98852.25;;;2.19;87.08
13952;BME280;39535;52.192;9.886;2024-01-15T12:17:52;98844.47;;;2.26;87.05
13952;BME280;39535;52.192;9.886;2024-01-15T12:20:19;98848.53;;;2.45;87.23
13952;BME280;39535;52.192;9.886;2024-01-15T12:22:45;98846.78;;;2.50;86.59
13952;BME280;39535;52.192;9.886;2024-01-15T12:25:13;98853.75;;;2.41;87.03
13952;BME280;39535;52.192;9.886;2024-01-15T12:27:39;98850.50;;;2.26;86.55
13952;BME280;39535;52.192;9.886;2024-01-15T12:30:07;98859.50;;;2.63;85.38
13952;BME280;39535;52.192;9.886;2024-01-15T12:32:36;98883.81;;;2.37;85.79
13952;BME280;39535;52.192;9.886;2024-01-15T12:35:03;98905.41;;;2.24;85.27
13952;BME280;39535;52.192;9.886;2024-01-15T12:37:30;98884.44;;;2.59;85.32
13952;BME280;39535;52.192;9.886;2024-01-15T12:39:58;98911.94;;;2.55;84.37
13952;BME280;39535;52.192;9.886;2024-01-15T12:42:27;98935.09;;;2.58;84.19
13952;BME280;39535;52.192;9.886;2024-01-15T12:44:55;98922.38;;;2.46;84.09
13952;BME280;39535;52.192;9.886;2024-01-15T12:47:22;98922.28;;;2.52;84.74
13952;BME280;39535;52.192;9.886;2024-01-15T12:49:48;98921.38;;;2.56;84.73
13952;BME280;39535;52.192;9.886;2024-01-15T12:52:19;98930.19;;;2.37;84.49
13952;BME280;39535;52.192;9.886;2024-01-15T12:54:46;98930.25;;;2.31;84.71
13952;BME280;39535;52.192;9.886;2024-01-15T12:57:13;98903.44;;;2.49;85.71
13952;BME280;39535;52.192;9.886;2024-01-15T12:59:40;98930.84;;;2.56;84.03
13952;BME280;39535;52.192;9.886;2024-01-15T13:02:07;98925.91;;;2.36;84.87
13952;BME280;39535;52.192;9.886;2024-01-15T13:04:33;98926.69;;;2.43;84.26
13952;BME280;39535;52.192;9.886;2024-01-15T13:06:59;98927.66;;;2.34;84.64
13952;BME280;39535;52.192;9.886;2024-01-15T13:09:26;98937.97;;;2.28;83.10